Time;durP1;ratioP1;P1;durP2;ratioP2;P2;SDS_P1;SDS_P2;PMS_P1;PMS_P2;Temp;Humidity;BMP_temperature;BMP_pressure;BME280_temperature;BME280_humidity;BME280_pressure;Samples;Min_cycle;Max_cycle;Signal;HPM_P1;HPM_P2
2021/10/08 00:01:01;;;;;;;2.10;1.90;;;;;;;;;;5118893;28;20200;-62
2021/10/08 00:03:29;;;;;;;2.10;1.90;;;;;;;;;;5118563;28;20209;-62
2021/10/08 00:05:59;;;;;;;2.77;1.93;;;;;;;;;;5118673;28;20639;-62
2021/10/08 00:08:27;;;;;;;3.77;2.37;;;;;;;;;;5118765;28;20267;-62
2021/10/08 00:10:55;;;;;;;4.23;2.20;;;;;;;;;;5118535;28;20215;-62
2021/10/08 00:13:23;;;;;;;4.40;2.20;;;;;;;;;;5117938;28;20212;-62
2021/10/08 00:15:51;;;;;;;2.83;2.20;;;;;;;;;;5118302;28;20224;-62
2021/10/08 00:18:19;;;;;;;3.50;2.50;;;;;;;;;;5118363;28;20879;-62
2021/10/08 00:20:47;;;;;;;6.43;2.07;;;;;;;;;;5118443;28;20204;-62
2021/10/08 00:23:16;;;;;;;2.67;1.97;;;;;;;;;;5118560;28;20205;-62
2021/10/08 00:25:44;;;;;;;2.97;1.80;;;;;;;;;;5118341;28;20231;-62
2021/10/08 00:28:12;;;;;;;2.60;2.10;;;;;;;;;;5118411;28;20228;-62
2021/10/08 00:30:40;;;;;;;2.20;2.00;;;;;;;;;;5118746;28;20208;-62
2021/10/08 00:33:08;;;;;;;2.53;2.10;;;;;;;;;;5118249;28;20204;-62
2021/10/08 00:35:36;;;;;;;4.27;2.17;;;;;;;;;;5118597;28;20315;-62
2021/10/08 00:38:05;;;;;;;2.23;2.03;;;;;;;;;;5118328;28;20311;-62
2021/10/08 00:40:35;;;;;;;1.80;1.70;;;;;;;;;;5117969;28;20200;-62
2021/10/08 00:43:03;;;;;;;6.10;2.30;;;;;;;;;;5118385;28;20208;-62
2021/10/08 00:45:32;;;;;;;3.40;2.40;;;;;;;;;;5117879;27;20231;-62
2021/10/08 00:48:01;;;;;;;2.43;1.93;;;;;;;;;;5118209;28;20224;-62
2021/10/08 00:50:30;;;;;;;2.30;2.10;;;;;;;;;;5117891;28;20609;-62
2021/10/08 00:52:58;;;;;;;3.60;2.60;;;;;;;;;;5118255;28;20208;-62
2021/10/08 00:55:26;;;;;;;3.40;2.30;;;;;;;;;;5117843;28;20277;-63
2021/10/08 00:57:56;;;;;;;2.20;2.00;;;;;;;;;;5118300;28;20203;-63
2021/10/08 01:00:25;;;;;;;4.83;2.87;;;;;;;;;;5118253;28;20204;-62
2021/10/08 01:02:53;;;;;;;2.57;2.40;;;;;;;;;;5117848;28;20215;-62
2021/10/08 01:05:21;;;;;;;5.40;3.27;;;;;;;;;;5118058;28;20262;-62
2021/10/08 01:07:50;;;;;;;3.87;2.67;;;;;;;;;;5117892;28;20224;-62
2021/10/08 01:10:19;;;;;;;3.13;2.90;;;;;;;;;;5117816;28;20656;-62
2021/10/08 01:12:47;;;;;;;3.80;2.70;;;;;;;;;;5117779;28;20208;-62
2021/10/08 01:15:16;;;;;;;3.90;2.63;;;;;;;;;;5117938;28;20227;-62
2021/10/08 01:17:44;;;;;;;3.37;2.43;;;;;;;;;;5117643;28;20670;-62
2021/10/08 01:20:13;;;;;;;3.33;2.77;;;;;;;;;;5117952;28;20209;-62
2021/10/08 01:22:41;;;;;;;3.33;2.93;;;;;;;;;;5117870;28;20201;-62
2021/10/08 01:25:10;;;;;;;3.40;3.10;;;;;;;;;;5120577;28;20220;-62
2021/10/08 01:27:38;;;;;;;2.67;2.47;;;;;;;;;;5122186;27;20291;-63
2021/10/08 01:30:07;;;;;;;2.83;2.63;;;;;;;;;;5142348;27;20226;-62
2021/10/08 01:32:36;;;;;;;4.17;2.67;;;;;;;;;;5142521;27;20285;-62
2021/10/08 01:35:04;;;;;;;4.23;2.70;;;;;;;;;;5142611;27;20220;-62
2021/10/08 01:37:34;;;;;;;6.63;3.37;;;;;;;;;;5142336;27;20208;-62
2021/10/08 01:40:03;;;;;;;3.10;2.80;;;;;;;;;;5133030;27;20574;-62
2021/10/08 01:42:32;;;;;;;4.97;2.87;;;;;;;;;;5121614;28;20205;-62
2021/10/08 01:45:00;;;;;;;3.30;3.00;;;;;;;;;;5121561;28;20237;-62
2021/10/08 01:47:28;;;;;;;3.63;2.67;;;;;;;;;;5121456;28;20213;-62
2021/10/08 01:49:56;;;;;;;2.70;2.50;;;;;;;;;;5121023;28;20246;-62
2021/10/08 01:52:24;;;;;;;4.97;3.17;;;;;;;;;;5121108;28;20704;-62
2021/10/08 01:54:54;;;;;;;4.53;2.73;;;;;;;;;;5121242;28;20229;-62
2021/10/08 01:57:24;;;;;;;4.20;2.80;;;;;;;;;;5120988;28;20215;-62
2021/10/08 01:59:52;;;;;;;3.90;2.73;;;;;;;;;;5121185;27;20548;-61
2021/10/08 02:02:20;;;;;;;4.97;2.97;;;;;;;;;;5121155;28;20567;-62
2021/10/08 02:04:48;;;;;;;4.47;2.97;;;;;;;;;;5121362;27;20734;-62
2021/10/08 02:07:16;;;;;;;3.83;3.03;;;;;;;;;;5121038;28;20207;-62
2021/10/08 02:09:44;;;;;;;4.37;2.70;;;;;;;;;;5120960;28;20235;-62
2021/10/08 02:12:14;;;;;;;3.87;3.30;;;;;;;;;;5121154;28;20205;-62
2021/10/08 02:14:42;;;;;;;6.27;3.10;;;;;;;;;;5120968;27;20229;-62
2021/10/08 02:17:10;;;;;;;3.20;2.90;;;;;;;;;;5120955;28;20266;-62
2021/10/08 02:19:38;;;;;;;4.10;3.20;;;;;;;;;;5120850;27;20205;-62
2021/10/08 02:22:06;;;;;;;3.20;2.90;;;;;;;;;;5120464;28;20208;-62
2021/10/08 02:24:34;;;;;;;5.13;3.37;;;;;;;;;;5120407;28;20216;-62
2021/10/08 02:27:02;;;;;;;3.67;2.80;;;;;;;;;;5120922;28;20204;-62
2021/10/08 02:29:32;;;;;;;4.17;3.53;;;;;;;;;;5120955;28;20231;-63
2021/10/08 02:32:00;;;;;;;3.53;3.23;;;;;;;;;;5120492;28;20201;-62
2021/10/08 02:34:29;;;;;;;4.33;3.10;;;;;;;;;;5136953;27;20234;-62
2021/10/08 02:36:57;;;;;;;3.00;2.80;;;;;;;;;;5141536;27;20214;-63
2021/10/08 02:39:25;;;;;;;2.83;2.60;;;;;;;;;;5137588;27;20207;-62
2021/10/08 02:41:53;;;;;;;3.87;2.90;;;;;;;;;;5120621;28;20204;-62
2021/10/08 02:44:21;;;;;;;4.03;3.03;;;;;;;;;;5120465;28;20231;-62
2021/10/08 02:46:50;;;;;;;3.33;3.03;;;;;;;;;;5120438;28;20205;-62
2021/10/08 02:49:21;;;;;;;4.43;3.10;;;;;;;;;;5120317;28;20224;-62
2021/10/08 02:51:49;;;;;;;4.03;3.07;;;;;;;;;;5120053;28;20233;-62
2021/10/08 02:54:17;;;;;;;3.33;3.03;;;;;;;;;;5119636;28;20723;-62
2021/10/08 02:56:45;;;;;;;3.93;3.30;;;;;;;;;;5120057;28;20230;-62
2021/10/08 02:59:13;;;;;;;3.50;3.20;;;;;;;;;;5120107;28;20664;-62
2021/10/08 03:01:41;;;;;;;3.87;3.33;;;;;;;;;;5119867;27;20675;-62
2021/10/08 03:04:11;;;;;;;4.37;3.00;;;;;;;;;;5119764;28;20731;-62
2021/10/08 03:06:39;;;;;;;4.50;3.10;;;;;;;;;;5119729;28;20204;-62
2021/10/08 03:09:06;;;;;;;3.93;3.07;;;;;;;;;;5119730;28;20225;-62
2021/10/08 03:11:36;;;;;;;3.83;3.33;;;;;;;;;;5120235;27;20205;-62
2021/10/08 03:14:04;;;;;;;3.50;3.20;;;;;;;;;;5120331;28;20288;-62
2021/10/08 03:16:32;;;;;;;7.90;3.17;;;;;;;;;;5119538;28;20571;-62
2021/10/08 03:19:00;;;;;;;3.47;3.17;;;;;;;;;;5119690;28;20205;-62
2021/10/08 03:21:29;;;;;;;4.10;3.00;;;;;;;;;;5119561;28;20229;-62
2021/10/08 03:23:57;;;;;;;3.90;3.50;;;;;;;;;;5119129;28;20666;-62
2021/10/08 03:26:25;;;;;;;5.13;3.10;;;;;;;;;;5119732;28;20300;-62
2021/10/08 03:28:53;;;;;;;3.30;3.00;;;;;;;;;;5119742;28;20205;-62
2021/10/08 03:31:21;;;;;;;4.03;3.27;;;;;;;;;;5119323;28;20215;-62
2021/10/08 03:33:49;;;;;;;5.13;3.03;;;;;;;;;;5119622;28;20224;-62
2021/10/08 03:36:22;;;;;;;5.37;3.83;;;;;;;;;;5119104;28;20292;-62
2021/10/08 03:38:51;;;;;;;5.33;3.43;;;;;;;;;;5119085;28;20208;-62
2021/10/08 03:41:20;;;;;;;5.30;2.70;;;;;;;;;;5119385;28;20231;-62
2021/10/08 03:43:53;;;;;;;4.37;3.40;;;;;;;;;;5119308;28;20565;-62
2021/10/08 03:46:21;;;;;;;4.30;3.70;;;;;;;;;;5118571;28;20289;-62
2021/10/08 03:49:12;;;;;;;3.67;3.33;;;;;;;;;;5119225;28;20268;-62
2021/10/08 03:51:41;;;;;;;4.73;3.93;;;;;;;;;;5109637;28;20236;-62
2021/10/08 03:54:11;;;;;;;6.97;4.17;;;;;;;;;;5118589;28;20228;-62
2021/10/08 03:56:39;;;;;;;3.90;3.30;;;;;;;;;;5118798;28;20568;-62
2021/10/08 03:59:07;;;;;;;4.07;3.50;;;;;;;;;;5118747;28;20209;-62
2021/10/08 04:01:36;;;;;;;5.17;3.60;;;;;;;;;;5119014;28;20268;-62
2021/10/08 04:04:05;;;;;;;4.33;3.23;;;;;;;;;;5118970;28;20228;-62
2021/10/08 04:06:33;;;;;;;4.47;3.60;;;;;;;;;;5118736;28;20205;-62
2021/10/08 04:09:02;;;;;;;5.43;3.87;;;;;;;;;;5118689;28;20285;-62
2021/10/08 04:11:32;;;;;;;4.43;3.77;;;;;;;;;;5118862;28;20209;-61
2021/10/08 04:14:00;;;;;;;4.93;4.43;;;;;;;;;;5118398;28;20703;-62
2021/10/08 04:16:28;;;;;;;8.27;4.33;;;;;;;;;;5118542;28;20207;-62
2021/10/08 04:18:56;;;;;;;5.00;4.40;;;;;;;;;;5119531;27;20254;-63
2021/10/08 04:21:24;;;;;;;7.60;5.03;;;;;;;;;;5119886;27;20189;-61
2021/10/08 04:23:52;;;;;;;5.70;4.67;;;;;;;;;;5120154;27;20229;-60
2021/10/08 04:26:20;;;;;;;5.07;4.53;;;;;;;;;;5120456;27;20196;-63
2021/10/08 04:28:49;;;;;;;5.17;4.03;;;;;;;;;;5118471;28;20205;-63
2021/10/08 04:31:17;;;;;;;8.17;4.47;;;;;;;;;;5118447;27;20243;-63
2021/10/08 04:33:48;;;;;;;5.50;4.80;;;;;;;;;;5118468;28;20307;-63
2021/10/08 04:36:16;;;;;;;5.50;4.60;;;;;;;;;;5118036;28;20211;-61
2021/10/08 04:38:44;;;;;;;9.27;5.13;;;;;;;;;;5118157;28;20287;-62
2021/10/08 04:41:12;;;;;;;5.70;4.33;;;;;;;;;;5118422;28;20203;-61
2021/10/08 04:43:40;;;;;;;5.03;4.57;;;;;;;;;;5118154;28;20209;-63
2021/10/08 04:46:10;;;;;;;7.00;4.37;;;;;;;;;;5117962;28;20545;-63
2021/10/08 04:48:38;;;;;;;6.37;4.67;;;;;;;;;;5110928;28;20197;-62
2021/10/08 04:51:06;;;;;;;4.73;4.33;;;;;;;;;;5117570;28;20708;-61
2021/10/08 04:53:34;;;;;;;6.23;5.50;;;;;;;;;;5118727;28;20279;-64
2021/10/08 04:56:02;;;;;;;5.10;4.60;;;;;;;;;;5115433;28;20196;-64
2021/10/08 04:58:30;;;;;;;6.13;4.60;;;;;;;;;;5122165;28;20283;-62
2021/10/08 05:00:58;;;;;;;8.10;5.30;;;;;;;;;;5124005;27;20207;-62
2021/10/08 05:03:27;;;;;;;6.93;5.20;;;;;;;;;;5124740;27;20232;-63
2021/10/08 05:05:55;;;;;;;4.90;4.40;;;;;;;;;;5124500;27;20207;-63
2021/10/08 05:08:23;;;;;;;5.73;4.83;;;;;;;;;;5124390;27;20200;-62
2021/10/08 05:10:51;;;;;;;6.73;5.13;;;;;;;;;;5110929;28;20772;-64
2021/10/08 05:13:19;;;;;;;5.50;4.57;;;;;;;;;;5123553;27;20197;-61
2021/10/08 05:15:47;;;;;;;6.63;4.57;;;;;;;;;;5125344;27;20220;-62
2021/10/08 05:18:15;;;;;;;7.10;5.20;;;;;;;;;;5121561;28;20201;-62
2021/10/08 05:20:45;;;;;;;5.20;4.70;;;;;;;;;;5123397;27;20197;-62
2021/10/08 05:23:13;;;;;;;5.73;4.87;;;;;;;;;;5125120;27;20207;-64
2021/10/08 05:25:41;;;;;;;5.50;4.57;;;;;;;;;;5124372;27;20242;-63
2021/10/08 05:28:09;;;;;;;7.37;4.87;;;;;;;;;;5124478;27;20219;-63
2021/10/08 05:30:37;;;;;;;6.67;5.27;;;;;;;;;;5124401;27;20226;-64
2021/10/08 05:33:05;;;;;;;5.87;5.20;;;;;;;;;;5124329;27;20239;-63
2021/10/08 05:35:33;;;;;;;6.27;5.50;;;;;;;;;;5124282;27;20315;-61
2021/10/08 05:38:02;;;;;;;7.37;4.97;;;;;;;;;;5124011;27;20583;-62
2021/10/08 05:40:31;;;;;;;5.20;4.50;;;;;;;;;;5124046;27;20260;-63
2021/10/08 05:43:00;;;;;;;10.50;7.40;;;;;;;;;;5124052;28;20228;-64
2021/10/08 05:45:28;;;;;;;7.07;5.10;;;;;;;;;;5124256;27;20224;-64
2021/10/08 05:47:56;;;;;;;7.80;4.70;;;;;;;;;;5124001;27;20212;-64
2021/10/08 05:50:25;;;;;;;8.47;6.40;;;;;;;;;;5123519;27;20217;-64
2021/10/08 05:52:53;;;;;;;6.40;5.20;;;;;;;;;;5123788;27;20572;-64
2021/10/08 05:55:23;;;;;;;4.97;4.50;;;;;;;;;;5123883;27;20231;-64
2021/10/08 05:57:55;;;;;;;6.20;5.57;;;;;;;;;;5124076;28;20208;-64
2021/10/08 06:00:23;;;;;;;5.97;5.07;;;;;;;;;;5124153;27;20205;-64
2021/10/08 06:02:51;;;;;;;7.77;4.50;;;;;;;;;;5124045;27;20242;-64
2021/10/08 06:05:19;;;;;;;6.47;5.60;;;;;;;;;;5123654;27;20844;-64
2021/10/08 06:07:47;;;;;;;5.83;4.83;;;;;;;;;;5123995;27;20280;-64
2021/10/08 06:10:15;;;;;;;4.97;4.47;;;;;;;;;;5120848;27;20208;-64
2021/10/08 06:12:44;;;;;;;5.57;4.80;;;;;;;;;;5120973;28;20207;-64
2021/10/08 06:15:13;;;;;;;5.27;4.77;;;;;;;;;;5120453;28;20719;-64
2021/10/08 06:17:41;;;;;;;5.53;4.60;;;;;;;;;;5120786;28;20213;-64
2021/10/08 06:20:09;;;;;;;7.17;4.70;;;;;;;;;;5120536;28;20215;-64
2021/10/08 06:22:39;;;;;;;8.67;5.13;;;;;;;;;;5120520;28;20207;-64
2021/10/08 06:25:07;;;;;;;11.20;5.10;;;;;;;;;;5119886;28;20225;-64
2021/10/08 06:27:35;;;;;;;5.17;4.67;;;;;;;;;;5120398;28;20220;-64
2021/10/08 06:30:05;;;;;;;6.30;4.97;;;;;;;;;;5120515;28;20208;-64
2021/10/08 06:32:33;;;;;;;7.43;5.20;;;;;;;;;;5120590;28;20260;-64
2021/10/08 06:35:01;;;;;;;8.07;5.23;;;;;;;;;;5120502;28;20231;-65
2021/10/08 06:37:29;;;;;;;9.97;5.20;;;;;;;;;;5120650;28;20215;-64
2021/10/08 06:39:57;;;;;;;7.53;4.93;;;;;;;;;;5120177;28;20213;-64
2021/10/08 06:42:25;;;;;;;6.13;4.97;;;;;;;;;;5120469;28;20215;-64
2021/10/08 06:44:54;;;;;;;7.43;5.47;;;;;;;;;;5120232;28;20741;-64
2021/10/08 06:47:23;;;;;;;7.17;4.90;;;;;;;;;;5119753;28;20574;-64
2021/10/08 06:49:51;;;;;;;7.13;5.00;;;;;;;;;;5117248;28;20212;-63
2021/10/08 06:52:19;;;;;;;8.63;5.27;;;;;;;;;;5119643;28;20232;-63
2021/10/08 06:54:47;;;;;;;7.00;5.33;;;;;;;;;;5119727;28;20228;-63
2021/10/08 06:57:15;;;;;;;6.50;5.07;;;;;;;;;;5119998;28;20209;-64
2021/10/08 06:59:43;;;;;;;7.53;5.27;;;;;;;;;;5119691;28;20209;-63
2021/10/08 07:02:11;;;;;;;7.23;4.47;;;;;;;;;;5119759;28;20672;-63
2021/10/08 07:04:41;;;;;;;7.00;4.93;;;;;;;;;;5119579;28;20673;-63
2021/10/08 07:07:09;;;;;;;5.47;4.50;;;;;;;;;;5120087;28;20200;-63
2021/10/08 07:09:37;;;;;;;8.50;4.87;;;;;;;;;;5119546;27;20235;-63
2021/10/08 07:12:05;;;;;;;7.50;5.30;;;;;;;;;;5119911;27;20268;-63
2021/10/08 07:14:33;;;;;;;7.37;5.67;;;;;;;;;;5119758;28;20231;-63
2021/10/08 07:17:02;;;;;;;6.13;4.83;;;;;;;;;;5119591;27;20205;-63
2021/10/08 07:19:30;;;;;;;5.13;4.60;;;;;;;;;;5119409;28;20552;-63
2021/10/08 07:21:59;;;;;;;6.20;4.70;;;;;;;;;;5107553;28;20297;-63
2021/10/08 07:24:28;;;;;;;6.50;4.80;;;;;;;;;;5118835;28;20692;-63
2021/10/08 07:26:56;;;;;;;6.57;5.10;;;;;;;;;;5119491;28;20205;-63
2021/10/08 07:29:24;;;;;;;6.53;4.57;;;;;;;;;;5119424;28;20208;-63
2021/10/08 07:31:52;;;;;;;6.13;4.33;;;;;;;;;;5118835;27;20242;-63
2021/10/08 07:34:20;;;;;;;5.47;4.53;;;;;;;;;;5119407;28;20232;-63
2021/10/08 07:36:48;;;;;;;9.90;4.60;;;;;;;;;;5118860;28;20631;-63
2021/10/08 07:39:17;;;;;;;6.83;5.27;;;;;;;;;;5119232;28;20204;-63
2021/10/08 07:41:45;;;;;;;6.13;4.80;;;;;;;;;;5134635;27;20557;-63
2021/10/08 07:44:14;;;;;;;7.03;5.33;;;;;;;;;;5139701;27;20223;-63
2021/10/08 07:46:41;;;;;;;8.00;5.00;;;;;;;;;;5139251;27;20200;-63
2021/10/08 07:49:10;;;;;;;5.27;4.50;;;;;;;;;;5134475;27;20211;-63
2021/10/08 07:51:38;;;;;;;7.07;5.00;;;;;;;;;;5118412;28;20940;-64
2021/10/08 07:54:06;;;;;;;5.50;4.53;;;;;;;;;;5118115;28;20587;-63
2021/10/08 07:56:35;;;;;;;5.83;5.00;;;;;;;;;;5118508;28;20587;-63
2021/10/08 07:59:05;;;;;;;9.60;4.23;;;;;;;;;;5118731;28;20205;-63
2021/10/08 08:01:33;;;;;;;5.43;4.93;;;;;;;;;;5118434;28;20201;-63
2021/10/08 08:04:01;;;;;;;6.27;4.70;;;;;;;;;;5118469;28;20783;-63
2021/10/08 08:06:29;;;;;;;6.43;4.80;;;;;;;;;;5118349;28;20681;-64
2021/10/08 08:08:57;;;;;;;6.30;4.60;;;;;;;;;;5124719;27;20206;-63
2021/10/08 08:11:25;;;;;;;7.13;4.63;;;;;;;;;;5138189;27;20206;-63
2021/10/08 08:13:55;;;;;;;5.43;4.60;;;;;;;;;;5139764;27;20232;-63
2021/10/08 08:16:22;;;;;;;5.53;4.60;;;;;;;;;;5139242;27;20199;-63
2021/10/08 08:18:51;;;;;;;7.80;5.00;;;;;;;;;;5139447;27;20212;-63
2021/10/08 08:21:19;;;;;;;8.07;5.53;;;;;;;;;;5126920;27;20211;-63
2021/10/08 08:23:48;;;;;;;6.87;5.07;;;;;;;;;;5111672;28;20288;-63
2021/10/08 08:26:16;;;;;;;7.63;5.10;;;;;;;;;;5118513;28;20207;-63
2021/10/08 08:28:44;;;;;;;8.57;5.13;;;;;;;;;;5118399;28;20296;-63
2021/10/08 08:31:13;;;;;;;6.57;4.63;;;;;;;;;;5118142;28;20683;-63
2021/10/08 08:33:41;;;;;;;4.50;3.90;;;;;;;;;;5117689;28;20277;-63
2021/10/08 08:36:10;;;;;;;5.97;4.83;;;;;;;;;;5118357;28;20204;-63
2021/10/08 08:38:38;;;;;;;4.43;3.90;;;;;;;;;;5117875;28;20201;-63
2021/10/08 08:41:06;;;;;;;6.77;4.83;;;;;;;;;;5118171;28;20211;-63
2021/10/08 08:43:54;;;;;;;5.23;4.43;;;;;;;;;;5118404;27;20714;-63
2021/10/08 08:46:23;;;;;;;5.20;4.30;;;;;;;;;;5118347;28;20201;-63
2021/10/08 08:48:51;;;;;;;6.33;4.37;;;;;;;;;;5118159;28;20205;-63
2021/10/08 08:51:19;;;;;;;5.53;4.53;;;;;;;;;;5117969;28;20652;-63
2021/10/08 08:53:48;;;;;;;7.37;4.37;;;;;;;;;;5117783;28;20715;-63
2021/10/08 08:56:16;;;;;;;5.70;3.77;;;;;;;;;;5118384;28;20211;-63
2021/10/08 08:58:44;;;;;;;5.77;4.17;;;;;;;;;;5118082;28;20215;-63
2021/10/08 09:01:12;;;;;;;6.40;4.47;;;;;;;;;;5117862;28;20682;-63
2021/10/08 09:03:59;;;;;;;6.73;4.77;;;;;;;;;;5118201;28;20197;-64
2021/10/08 09:06:31;;;;;;;10.10;3.83;;;;;;;;;;5118386;28;20208;-63
2021/10/08 09:08:59;;;;;;;5.13;4.63;;;;;;;;;;5102813;28;20292;-63
2021/10/08 09:11:39;;;;;;;5.50;4.33;;;;;;;;;;5116123;28;20287;-63
2021/10/08 09:14:17;;;;;;;8.80;4.33;;;;;;;;;;5117210;28;20224;-63
2021/10/08 09:16:59;;;;;;;5.93;4.23;;;;;;;;;;5117947;28;20240;-64
2021/10/08 09:19:44;;;;;;;4.80;4.27;;;;;;;;;;5105576;28;20209;-64
2021/10/08 09:22:12;;;;;;;6.77;4.70;;;;;;;;;;5107605;28;20200;-63
2021/10/08 09:24:40;;;;;;;5.03;4.33;;;;;;;;;;5117341;28;20242;-63
2021/10/08 09:27:08;;;;;;;5.10;4.40;;;;;;;;;;5117861;28;20208;-63
2021/10/08 09:29:36;;;;;;;4.73;4.17;;;;;;;;;;5117380;28;20215;-63
2021/10/08 09:32:05;;;;;;;5.37;4.27;;;;;;;;;;5117555;28;20292;-63
2021/10/08 09:34:34;;;;;;;6.23;4.33;;;;;;;;;;5117558;28;20583;-64
2021/10/08 09:37:03;;;;;;;6.23;4.37;;;;;;;;;;5117313;28;20205;-63
2021/10/08 09:39:33;;;;;;;5.03;4.47;;;;;;;;;;5130205;28;20200;-63
2021/10/08 09:42:01;;;;;;;7.00;4.37;;;;;;;;;;5138623;27;20239;-63
2021/10/08 09:44:30;;;;;;;6.43;4.43;;;;;;;;;;5138210;27;20311;-63
2021/10/08 09:47:10;;;;;;;4.40;4.00;;;;;;;;;;5142221;27;20208;-64
2021/10/08 09:49:41;;;;;;;10.47;4.90;;;;;;;;;;5135682;27;20236;-63
2021/10/08 09:52:30;;;;;;;5.53;4.50;;;;;;;;;;5121510;28;20699;-63
2021/10/08 09:54:58;;;;;;;5.30;4.10;;;;;;;;;;5116344;28;20714;-63
2021/10/08 09:57:27;;;;;;;4.60;4.10;;;;;;;;;;5121334;28;20209;-63
2021/10/08 09:59:56;;;;;;;4.17;3.77;;;;;;;;;;5121597;28;20208;-62
2021/10/08 10:02:24;;;;;;;4.90;4.37;;;;;;;;;;5120868;28;20208;-64
2021/10/08 10:04:55;;;;;;;4.87;4.37;;;;;;;;;;5110786;28;20225;-63
2021/10/08 10:07:27;;;;;;;4.57;4.03;;;;;;;;;;5114901;27;20205;-62
2021/10/08 10:09:56;;;;;;;5.90;4.40;;;;;;;;;;5124448;27;20260;-64
2021/10/08 10:12:35;;;;;;;7.00;5.00;;;;;;;;;;5141355;27;20228;-64
2021/10/08 10:15:04;;;;;;;8.20;4.23;;;;;;;;;;5141184;27;20310;-64
2021/10/08 10:17:32;;;;;;;5.23;4.27;;;;;;;;;;5141250;27;20200;-64
2021/10/08 10:20:02;;;;;;;5.17;4.67;;;;;;;;;;5141527;27;20291;-63
2021/10/08 10:22:32;;;;;;;6.23;4.50;;;;;;;;;;5114575;27;20264;-62
2021/10/08 10:25:00;;;;;;;5.37;4.30;;;;;;;;;;5120698;28;20304;-61
2021/10/08 10:27:28;;;;;;;5.17;3.67;;;;;;;;;;5120948;28;20283;-61
2021/10/08 10:29:57;;;;;;;5.23;3.90;;;;;;;;;;5120921;28;20209;-64
2021/10/08 10:32:25;;;;;;;6.27;4.33;;;;;;;;;;5119984;28;20679;-62
2021/10/08 10:34:53;;;;;;;5.33;4.00;;;;;;;;;;5119978;28;20236;-64
2021/10/08 10:40:17;;;;;;;7.47;4.90;;;;;;;;;;5156092;27;20583;-63
2021/10/08 10:42:45;;;;;;;6.10;4.20;;;;;;;;;;5156601;27;20206;-62
2021/10/08 10:45:18;;;;;;;6.20;4.23;;;;;;;;;;5141192;27;20306;-62
2021/10/08 10:48:08;;;;;;;8.30;4.37;;;;;;;;;;5135499;27;20210;-63
2021/10/08 10:50:48;;;;;;;4.67;3.93;;;;;;;;;;5135194;28;20725;-63
2021/10/08 10:53:16;;;;;;;5.10;4.60;;;;;;;;;;5135312;27;20263;-65
2021/10/08 10:55:46;;;;;;;6.20;4.33;;;;;;;;;;5135537;27;20260;-62
2021/10/08 10:58:17;;;;;;;7.40;4.40;;;;;;;;;;5135368;27;20206;-62
2021/10/08 11:00:46;;;;;;;6.07;4.50;;;;;;;;;;5135656;27;20216;-62
2021/10/08 11:03:18;;;;;;;4.60;4.13;;;;;;;;;;5135258;27;20247;-62
2021/10/08 11:06:06;;;;;;;5.03;3.43;;;;;;;;;;5135607;27;20228;-62
2021/10/08 11:08:34;;;;;;;6.63;4.50;;;;;;;;;;5135208;27;20291;-62
2021/10/08 11:11:16;;;;;;;5.83;3.93;;;;;;;;;;5135321;27;20208;-62
2021/10/08 11:13:46;;;;;;;8.90;5.43;;;;;;;;;;5135024;27;20287;-61
2021/10/08 11:16:16;;;;;;;5.17;4.43;;;;;;;;;;5135074;27;20204;-61
2021/10/08 11:18:45;;;;;;;7.80;4.90;;;;;;;;;;5134893;27;20311;-61
2021/10/08 11:21:14;;;;;;;5.50;4.10;;;;;;;;;;5135088;27;20292;-63
2021/10/08 11:23:43;;;;;;;4.27;3.83;;;;;;;;;;5134708;27;20209;-63
2021/10/08 11:26:12;;;;;;;4.77;4.27;;;;;;;;;;5134844;27;20196;-63
2021/10/08 11:28:42;;;;;;;4.93;4.20;;;;;;;;;;5134948;27;20218;-63
2021/10/08 11:31:11;;;;;;;10.90;3.73;;;;;;;;;;5133770;27;20207;-63
2021/10/08 11:33:41;;;;;;;7.37;3.77;;;;;;;;;;5134434;27;20203;-63
2021/10/08 11:36:17;;;;;;;6.13;4.33;;;;;;;;;;5127864;28;20200;-63
2021/10/08 11:38:45;;;;;;;3.60;3.30;;;;;;;;;;5132653;28;20319;-63
2021/10/08 11:41:14;;;;;;;3.97;3.57;;;;;;;;;;5134789;27;20200;-63
2021/10/08 11:43:44;;;;;;;4.60;3.30;;;;;;;;;;5131574;27;20193;-63
2021/10/08 11:46:18;;;;;;;5.93;4.43;;;;;;;;;;5130314;27;20208;-63
2021/10/08 11:48:50;;;;;;;4.07;3.63;;;;;;;;;;5131080;28;20668;-61
2021/10/08 11:51:18;;;;;;;6.83;3.90;;;;;;;;;;5120910;28;20659;-63
2021/10/08 11:53:47;;;;;;;5.33;3.50;;;;;;;;;;5119048;28;20652;-63
2021/10/08 11:56:24;;;;;;;3.47;3.17;;;;;;;;;;5117902;28;20201;-63
2021/10/08 11:58:54;;;;;;;5.03;3.70;;;;;;;;;;5116519;28;20570;-64
2021/10/08 12:01:23;;;;;;;5.57;4.00;;;;;;;;;;5118706;28;20655;-61
2021/10/08 12:03:51;;;;;;;7.13;3.60;;;;;;;;;;5118901;28;20224;-62
2021/10/08 12:06:22;;;;;;;5.17;3.37;;;;;;;;;;5119997;28;20201;-62
2021/10/08 12:08:52;;;;;;;5.90;3.17;;;;;;;;;;5120175;28;20197;-62
2021/10/08 12:11:21;;;;;;;3.20;2.83;;;;;;;;;;5120401;28;20563;-63
2021/10/08 12:13:51;;;;;;;4.57;3.47;;;;;;;;;;5120327;28;20227;-63
2021/10/08 12:16:21;;;;;;;4.67;3.33;;;;;;;;;;5120493;28;20288;-63
2021/10/08 12:18:51;;;;;;;5.80;5.27;;;;;;;;;;5119694;28;20644;-63
2021/10/08 12:21:20;;;;;;;5.83;3.73;;;;;;;;;;5120121;28;20193;-62
2021/10/08 12:23:55;;;;;;;4.67;3.80;;;;;;;;;;5119289;28;20692;-63
2021/10/08 12:26:23;;;;;;;5.40;3.87;;;;;;;;;;5112655;28;20208;-63
2021/10/08 12:28:52;;;;;;;4.53;3.37;;;;;;;;;;5119725;28;20671;-62
2021/10/08 12:31:22;;;;;;;3.43;3.07;;;;;;;;;;5119748;28;20208;-62
2021/10/08 12:33:50;;;;;;;3.97;3.20;;;;;;;;;;5120300;28;20267;-63
2021/10/08 12:36:23;;;;;;;4.03;2.97;;;;;;;;;;5120131;27;20212;-63
2021/10/08 12:38:54;;;;;;;4.27;2.93;;;;;;;;;;5119287;28;20228;-62
2021/10/08 12:41:24;;;;;;;4.07;2.67;;;;;;;;;;5119983;28;20266;-63
2021/10/08 12:44:02;;;;;;;5.43;3.30;;;;;;;;;;5120021;28;20322;-63
2021/10/08 12:46:36;;;;;;;3.50;3.20;;;;;;;;;;5119512;28;20287;-63
2021/10/08 12:49:04;;;;;;;6.33;2.87;;;;;;;;;;5119977;28;20253;-63
2021/10/08 12:51:33;;;;;;;3.90;2.93;;;;;;;;;;5119558;28;20211;-63
2021/10/08 12:54:18;;;;;;;4.13;3.17;;;;;;;;;;5119154;28;20312;-63
2021/10/08 12:56:46;;;;;;;3.70;2.57;;;;;;;;;;5119538;28;20204;-63
2021/10/08 12:59:14;;;;;;;2.60;2.40;;;;;;;;;;5119568;28;20662;-63
2021/10/08 13:01:56;;;;;;;3.60;2.67;;;;;;;;;;5118524;28;20201;-63
2021/10/08 13:04:24;;;;;;;3.70;2.97;;;;;;;;;;5119544;28;20235;-63
2021/10/08 13:07:07;;;;;;;4.07;2.97;;;;;;;;;;5120220;27;20949;-63
2021/10/08 13:09:36;;;;;;;3.77;3.10;;;;;;;;;;5123881;27;20193;-63
2021/10/08 13:12:04;;;;;;;4.23;3.70;;;;;;;;;;5128489;27;20211;-63
2021/10/08 13:14:32;;;;;;;3.77;3.07;;;;;;;;;;5123014;27;20221;-63
2021/10/08 13:17:16;;;;;;;5.53;3.53;;;;;;;;;;5119330;28;20239;-63
2021/10/08 13:19:43;;;;;;;3.50;2.80;;;;;;;;;;5122060;27;20218;-63
2021/10/08 13:22:11;;;;;;;2.73;2.53;;;;;;;;;;5126659;27;20727;-63
2021/10/08 13:24:39;;;;;;;2.57;2.37;;;;;;;;;;5126361;27;20231;-62
2021/10/08 13:27:07;;;;;;;11.87;3.10;;;;;;;;;;5127388;27;20204;-61
2021/10/08 13:29:35;;;;;;;6.67;3.20;;;;;;;;;;5129262;27;20280;-60
2021/10/08 13:32:05;;;;;;;3.40;2.97;;;;;;;;;;5121372;27;20199;-60
2021/10/08 13:34:33;;;;;;;3.50;2.73;;;;;;;;;;5118914;28;20229;-61
2021/10/08 13:37:08;;;;;;;3.90;3.40;;;;;;;;;;5118944;28;20229;-61
2021/10/08 13:39:38;;;;;;;3.13;2.67;;;;;;;;;;5118154;28;20247;-62
2021/10/08 13:42:06;;;;;;;4.23;3.13;;;;;;;;;;5118860;28;20221;-62
2021/10/08 13:44:37;;;;;;;2.70;2.50;;;;;;;;;;5118745;28;20250;-61
2021/10/08 13:47:06;;;;;;;2.67;2.47;;;;;;;;;;5118425;28;20664;-62
2021/10/08 13:49:34;;;;;;;3.10;2.90;;;;;;;;;;5118598;28;20215;-62
2021/10/08 13:52:03;;;;;;;2.60;2.40;;;;;;;;;;5118531;28;20236;-62
2021/10/08 13:54:32;;;;;;;2.73;2.50;;;;;;;;;;5128816;27;20228;-62
2021/10/08 13:57:00;;;;;;;3.73;2.73;;;;;;;;;;5128775;27;20282;-62
2021/10/08 13:59:29;;;;;;;3.67;2.60;;;;;;;;;;5126965;27;20197;-62
2021/10/08 14:02:02;;;;;;;5.37;3.07;;;;;;;;;;5125232;27;20220;-62
2021/10/08 14:04:37;;;;;;;3.40;2.57;;;;;;;;;;5129075;27;20231;-63
2021/10/08 14:07:14;;;;;;;2.50;2.30;;;;;;;;;;5127566;27;20658;-62
2021/10/08 14:12:28;;;;;;;2.53;2.33;;;;;;;;;;5118316;28;20207;-63
2021/10/08 14:14:57;;;;;;;2.57;2.37;;;;;;;;;;5118195;28;20761;-63
2021/10/08 14:17:25;;;;;;;5.23;2.43;;;;;;;;;;5117887;28;20235;-63
2021/10/08 14:19:55;;;;;;;2.10;1.90;;;;;;;;;;5118365;28;20208;-63
2021/10/08 14:22:23;;;;;;;3.97;2.33;;;;;;;;;;5118305;28;20204;-64
2021/10/08 14:24:51;;;;;;;2.37;2.17;;;;;;;;;;5126891;27;20770;-64
2021/10/08 14:27:19;;;;;;;1.90;1.80;;;;;;;;;;5126383;27;20679;-64
2021/10/08 14:29:47;;;;;;;2.27;2.03;;;;;;;;;;5126650;27;20196;-62
2021/10/08 14:32:15;;;;;;;2.77;2.00;;;;;;;;;;5118104;28;20211;-63
2021/10/08 14:34:43;;;;;;;2.97;2.00;;;;;;;;;;5117594;28;20229;-62
2021/10/08 14:37:12;;;;;;;2.77;2.07;;;;;;;;;;5117750;28;20215;-62
2021/10/08 14:39:40;;;;;;;2.17;1.97;;;;;;;;;;5117328;28;20242;-61
2021/10/08 14:42:09;;;;;;;3.43;2.47;;;;;;;;;;5117810;28;20234;-62
2021/10/08 14:44:38;;;;;;;2.00;1.90;;;;;;;;;;5117270;28;20714;-62
2021/10/08 14:47:06;;;;;;;4.13;2.00;;;;;;;;;;5117643;28;20295;-63
2021/10/08 14:49:34;;;;;;;3.90;2.07;;;;;;;;;;5117701;28;20208;-63
2021/10/08 14:52:07;;;;;;;2.97;1.97;;;;;;;;;;5117568;28;20205;-62
2021/10/08 14:54:46;;;;;;;2.10;2.00;;;;;;;;;;5117102;28;20229;-62
2021/10/08 14:57:53;;;;;;;1.90;1.80;;;;;;;;;;5117480;28;20204;-62
2021/10/08 15:00:20;;;;;;;1.90;1.80;;;;;;;;;;5117775;28;20679;-61
2021/10/08 15:02:48;;;;;;;7.20;2.30;;;;;;;;;;5117622;28;20284;-62